King Coffee — D5CU3 — position and weather

sailwx.info

Track history (hours):
 
Tides and Currents Weather Stations Pressure Air Temp Water Temp Dewpoint Dewpoint Depression Visibility Wind Speed Wind Dir Waves Ship Positions

King Coffee

Last reported at 2018-Apr-12 17:35 UTC. Time now 2018-Apr-19 17:08 UTC.
Position N 25°38' W 079°32'.

Length 182 m; draft 8.5 m.

Type: Cargo ship. MMSI: 636015782.

Date/timePositionNaut miles runAvg speedWind from/ knotsBaromVisibWave heightAir tempDewpointWater temp
2018-Apr-12 17:35N 25°38' W 079°32'6 9.0
2018-Apr-12 16:59N 25°43' W 079°32'7 9.0
2018-Apr-12 16:11N 25°51' W 079°32'15 9.9
2018-Apr-12 14:39N 26°05' W 079°28'210.6
2018-Apr-12 14:30N 26°07' W 079°28'510.7
2018-Apr-12 14:00N 26°12' W 079°26'  
2018-Apr-03 03:32N 37°01' W 028°59'511.2
2018-Apr-03 03:07N 37°05' W 028°55'211.3
2018-Apr-03 02:58N 37°06' W 028°54'911.2
2018-Apr-03 02:09N 37°12' W 028°45'411.0
2018-Apr-03 01:49N 37°15' W 028°42'311.1
2018-Apr-03 01:30N 37°17' W 028°39'610.9
2018-Apr-03 00:59N 37°21' W 028°33'510.6
2018-Apr-03 00:30N 37°24' W 028°29'510.9
2018-Apr-03 00:00N 37°28' W 028°24'510.7
2018-Apr-02 23:30N 37°31' W 028°18'510.8
2018-Apr-02 23:00N 37°35' W 028°13'510.8
2018-Apr-02 22:30N 37°38' W 028°08'510.5
2018-Apr-02 22:01N 37°42' W 028°03'510.5
2018-Apr-02 21:30N 37°46' W 027°59'510.4
2018-Apr-02 21:00N 37°49' W 027°54'510.4
2018-Apr-02 20:30N 37°53' W 027°49'510.5
2018-Apr-02 20:00N 37°57' W 027°44'511.0
2018-Apr-02 19:30N 38°01' W 027°40'611.3
2018-Apr-02 19:00N 38°05' W 027°35'511.0
2018-Apr-02 18:30N 38°08' W 027°30'611.4
2018-Apr-02 18:01N 38°12' W 027°24'  
Track history (hours):
 
Tides and Currents Weather Stations Pressure Air Temp Water Temp Dewpoint Dewpoint Depression Visibility Wind Speed Wind Dir Waves Ship Positions

King Coffee

Last reported at 2018-Apr-12 17:35 UTC. Time now 2018-Apr-19 17:08 UTC.
Position N 25°38' W 079°32'.

Length 182 m; draft 8.5 m.

Type: Cargo ship. MMSI: 636015782.

Date/timePositionNaut miles runAvg speedWind from/ knotsBaromVisibWave heightAir tempDewpointWater temp
2018-Apr-12 17:35N 25°38' W 079°32'6 9.0
2018-Apr-12 16:59N 25°43' W 079°32'7 9.0
2018-Apr-12 16:11N 25°51' W 079°32'15 9.9
2018-Apr-12 14:39N 26°05' W 079°28'210.6
2018-Apr-12 14:30N 26°07' W 079°28'510.7
2018-Apr-12 14:00N 26°12' W 079°26'  
2018-Apr-03 03:32N 37°01' W 028°59'511.2
2018-Apr-03 03:07N 37°05' W 028°55'211.3
2018-Apr-03 02:58N 37°06' W 028°54'911.2
2018-Apr-03 02:09N 37°12' W 028°45'411.0
2018-Apr-03 01:49N 37°15' W 028°42'311.1
2018-Apr-03 01:30N 37°17' W 028°39'610.9
2018-Apr-03 00:59N 37°21' W 028°33'510.6
2018-Apr-03 00:30N 37°24' W 028°29'510.9
2018-Apr-03 00:00N 37°28' W 028°24'510.7
2018-Apr-02 23:30N 37°31' W 028°18'510.8
2018-Apr-02 23:00N 37°35' W 028°13'510.8
2018-Apr-02 22:30N 37°38' W 028°08'510.5
2018-Apr-02 22:01N 37°42' W 028°03'510.5
2018-Apr-02 21:30N 37°46' W 027°59'510.4
2018-Apr-02 21:00N 37°49' W 027°54'510.4
2018-Apr-02 20:30N 37°53' W 027°49'510.5
2018-Apr-02 20:00N 37°57' W 027°44'511.0
2018-Apr-02 19:30N 38°01' W 027°40'611.3
2018-Apr-02 19:00N 38°05' W 027°35'511.0
2018-Apr-02 18:30N 38°08' W 027°30'611.4
2018-Apr-02 18:01N 38°12' W 027°24'  

Dump ship's entire track history